| time (UTC) | temp F | wind direction | speed knots | gust knots | rain 1hr in | rain 24hr in | rain mn in | humidity % | barometer mb |
| 20260508005403 | 53 | 239 | 0.0 | 0.0 | 0.00 | 0.03 | 0.03 | 47 | 1006.4 |
| 20260508004900 | 53 | 255 | 0.9 | 0.9 | 0.00 | 0.03 | 0.03 | 44 | 1006.4 |
| 20260508004356 | 54 | 242 | 0.0 | 0.0 | 0.00 | 0.03 | 0.03 | 43 | 1006.4 |
| 20260508003852 | 54 | 241 | 0.0 | 0.0 | 0.00 | 0.03 | 0.03 | 42 | 1006.3 |
| 20260508003349 | 55 | 246 | 0.9 | 0.9 | 0.00 | 0.03 | 0.03 | 41 | 1006.0 |
| 20260508002847 | 55 | 242 | 0.0 | 0.9 | 0.00 | 0.03 | 0.03 | 41 | 1006.0 |
| 20260508002343 | 55 | 259 | 0.9 | 0.9 | 0.00 | 0.03 | 0.03 | 39 | 1005.9 |
| 20260508001839 | 56 | 265 | 0.9 | 0.9 | 0.00 | 0.03 | 0.03 | 38 | 1005.9 |
| 20260508001335 | 56 | 254 | 0.9 | 0.9 | 0.00 | 0.03 | 0.03 | 38 | 1006.0 |
| 20260508000832 | 56 | 241 | 0.0 | 0.9 | 0.00 | 0.03 | 0.03 | 38 | 1005.8 |
| 20260508000328 | 56 | 276 | 1.7 | 1.7 | 0.00 | 0.03 | 0.03 | 37 | 1005.7 |
| 20260507235825 | 56 | 274 | 1.7 | 1.7 | 0.00 | 0.03 | 0.03 | 37 | 1005.6 |
| 20260507235323 | 57 | 260 | 2.6 | 2.6 | 0.00 | 0.03 | 0.03 | 38 | 1005.6 |
| 20260507234819 | 57 | 249 | 0.0 | 0.9 | 0.00 | 0.03 | 0.03 | 38 | 1005.4 |
| 20260507234316 | 58 | 278 | 0.9 | 0.9 | 0.00 | 0.03 | 0.03 | 37 | 1005.5 |
| 20260507233812 | 58 | 263 | 0.9 | 1.7 | 0.00 | 0.03 | 0.03 | 36 | 1005.5 |
| 20260507233310 | 58 | 253 | 0.9 | 0.9 | 0.00 | 0.03 | 0.03 | 36 | 1005.5 |
| 20260507232808 | 59 | 240 | 1.7 | 1.7 | 0.00 | 0.03 | 0.03 | 36 | 1005.6 |
| 20260507232306 | 59 | 281 | 0.9 | 1.7 | 0.00 | 0.03 | 0.03 | 37 | 1005.4 |
| 20260507231801 | 59 | 262 | 1.7 | 1.7 | 0.00 | 0.03 | 0.03 | 35 | 1005.3 |
| 20260507231258 | 59 | 238 | 0.9 | 1.7 | 0.00 | 0.03 | 0.03 | 34 | 1005.2 |
| 20260507230754 | 59 | 253 | 1.7 | 1.7 | 0.00 | 0.03 | 0.03 | 34 | 1005.1 |
| 20260507230252 | 60 | 25 | 2.6 | 2.6 | 0.00 | 0.03 | 0.03 | 33 | 1005.1 |
| 20260507225751 | 60 | 259 | 0.9 | 0.9 | 0.00 | 0.03 | 0.03 | 34 | 1005.0 |
| 20260507225248 | 60 | 247 | 2.6 | 2.6 | 0.00 | 0.03 | 0.03 | 35 | 1005.0 |
| 20260507224744 | 60 | 237 | 1.7 | 1.7 | 0.00 | 0.03 | 0.03 | 35 | 1005.1 |
| 20260507224241 | 61 | 243 | 1.7 | 1.7 | 0.00 | 0.03 | 0.03 | 34 | 1005.0 |
| 20260507223737 | 61 | 216 | 0.0 | 0.9 | 0.00 | 0.03 | 0.03 | 36 | 1005.0 |
| 20260507223234 | 61 | 282 | 2.6 | 4.3 | 0.00 | 0.03 | 0.03 | 35 | 1005.0 |
| 20260507222730 | 61 | 212 | 0.9 | 0.9 | 0.00 | 0.03 | 0.03 | 35 | 1004.9 |
| 20260507222227 | 61 | 340 | 1.7 | 1.7 | 0.00 | 0.03 | 0.03 | 34 | 1005.0 |
| 20260507221724 | 61 | 312 | 3.5 | 6.1 | 0.00 | 0.03 | 0.03 | 34 | 1004.8 |
| 20260507221220 | 61 | 242 | 0.0 | 0.0 | 0.00 | 0.03 | 0.03 | 36 | 1004.7 |
| 20260507220717 | 62 | 276 | 2.6 | 2.6 | 0.00 | 0.03 | 0.03 | 33 | 1004.7 |
| 20260507220215 | 62 | 284 | 1.7 | 1.7 | 0.00 | 0.03 | 0.03 | 33 | 1004.7 |
| 20260507215711 | 62 | 233 | 1.7 | 1.7 | 0.00 | 0.03 | 0.03 | 34 | 1004.7 |
| 20260507215208 | 62 | 246 | 0.9 | 1.7 | 0.00 | 0.03 | 0.03 | 35 | 1004.7 |
| 20260507214706 | 62 | 231 | 0.9 | 0.9 | 0.00 | 0.03 | 0.03 | 38 | 1004.7 |
| 20260507214202 | 63 | 276 | 2.6 | 2.6 | 0.00 | 0.03 | 0.03 | 36 | 1004.7 |
| 20260507213658 | 63 | 232 | 2.6 | 4.3 | 0.00 | 0.03 | 0.03 | 34 | 1004.3 |
| 20260507213155 | 62 | 253 | 0.9 | 0.9 | 0.00 | 0.03 | 0.03 | 34 | 1004.5 |
| 20260507212651 | 62 | 321 | 1.7 | 2.6 | 0.00 | 0.03 | 0.03 | 34 | 1004.5 |
| 20260507212148 | 62 | 296 | 1.7 | 2.6 | 0.00 | 0.03 | 0.03 | 35 | 1004.6 |
| 20260507211645 | 63 | 234 | 2.6 | 4.3 | 0.00 | 0.03 | 0.03 | 33 | 1004.4 |
| 20260507211140 | 62 | 262 | 1.7 | 1.7 | 0.00 | 0.03 | 0.03 | 32 | 1004.4 |
| 20260507210638 | 63 | 247 | 1.7 | 1.7 | 0.00 | 0.03 | 0.03 | 34 | 1004.4 |
| 20260507210135 | 63 | 238 | 1.7 | 1.7 | 0.00 | 0.03 | 0.03 | 33 | 1004.4 |
| 20260507205631 | 63 | 305 | 1.7 | 1.7 | 0.00 | 0.03 | 0.03 | 33 | 1004.4 |
| 20260507205128 | 63 | 217 | 0.9 | 0.9 | 0.00 | 0.03 | 0.03 | 32 | 1004.3 |
| 20260507204624 | 63 | 239 | 1.7 | 2.6 | 0.00 | 0.03 | 0.03 | 30 | 1004.5 |
| 20260507204122 | 63 | 269 | 2.6 | 2.6 | 0.00 | 0.03 | 0.03 | 31 | 1004.3 |
| 20260507203620 | 63 | 207 | 0.9 | 0.9 | 0.00 | 0.03 | 0.03 | 31 | 1004.3 |
| 20260507203117 | 64 | 355 | 2.6 | 2.6 | 0.00 | 0.03 | 0.03 | 30 | 1004.4 |
| 20260507202613 | 64 | 315 | 3.5 | 7.0 | 0.00 | 0.03 | 0.03 | 31 | 1004.6 |
| 20260507202109 | 65 | 215 | 2.6 | 2.6 | 0.00 | 0.03 | 0.03 | 31 | 1004.3 |
| 20260507201604 | 64 | 223 | 0.9 | 1.7 | 0.00 | 0.03 | 0.03 | 30 | 1004.3 |
| 20260507201101 | 65 | 249 | 0.0 | 0.9 | 0.00 | 0.03 | 0.03 | 31 | 1004.6 |
| 20260507200557 | 64 | 323 | 2.6 | 2.6 | 0.00 | 0.03 | 0.03 | 30 | 1004.4 |
| 20260507200053 | 65 | 255 | 1.7 | 2.6 | 0.00 | 0.03 | 0.03 | 30 | 1004.5 |
| 20260507195550 | 65 | 234 | 0.9 | 1.7 | 0.00 | 0.03 | 0.03 | 33 | 1004.5 |
| 20260507195048 | 64 | 20 | 1.7 | 1.7 | 0.00 | 0.03 | 0.03 | 30 | 1004.6 |
| 20260507194544 | 64 | 200 | 1.7 | 1.7 | 0.00 | 0.03 | 0.03 | 33 | 1004.6 |
| 20260507194040 | 65 | 298 | 4.3 | 7.0 | 0.00 | 0.03 | 0.03 | 30 | 1004.7 |
| 20260507193537 | 65 | 249 | 3.5 | 5.2 | 0.00 | 0.03 | 0.03 | 31 | 1004.5 |
| 20260507193034 | 65 | 285 | 3.5 | 5.2 | 0.00 | 0.03 | 0.03 | 29 | 1004.6 |
| 20260507192530 | 65 | 285 | 2.6 | 2.6 | 0.00 | 0.03 | 0.03 | 31 | 1004.8 |
| 20260507192027 | 64 | 306 | 5.2 | 7.0 | 0.00 | 0.03 | 0.03 | 31 | 1004.8 |
| 20260507191522 | 64 | 291 | 1.7 | 2.6 | 0.00 | 0.03 | 0.03 | 31 | 1004.7 |
| 20260507191020 | 66 | 301 | 1.7 | 1.7 | 0.00 | 0.03 | 0.03 | 33 | 1004.6 |
| 20260507190517 | 65 | 251 | 0.9 | 1.7 | 0.00 | 0.03 | 0.03 | 30 | 1005.1 |
| 20260507190016 | 64 | 217 | 1.7 | 2.6 | 0.00 | 0.03 | 0.03 | 31 | 1004.9 |
| 20260507185514 | 65 | 259 | 4.3 | 6.1 | 0.00 | 0.03 | 0.03 | 30 | 1005.0 |
| 20260507185010 | 65 | 193 | 0.9 | 1.7 | 0.00 | 0.03 | 0.03 | 31 | 1005.0 |
| 20260507184508 | 65 | 228 | 2.6 | 4.3 | 0.00 | 0.03 | 0.03 | 31 | 1005.1 |
| 20260507184006 | 66 | 232 | 2.6 | 2.6 | 0.00 | 0.03 | 0.03 | 31 | 1004.9 |
| 20260507183501 | 66 | 250 | 0.9 | 1.7 | 0.00 | 0.03 | 0.03 | 32 | 1004.9 |
| 20260507182959 | 65 | 213 | 2.6 | 2.6 | 0.00 | 0.03 | 0.03 | 33 | 1005.0 |
| 20260507182455 | 65 | 243 | 2.6 | 2.6 | 0.00 | 0.03 | 0.03 | 34 | 1005.3 |
| 20260507181951 | 65 | 274 | 2.6 | 4.3 | 0.00 | 0.03 | 0.03 | 31 | 1005.3 |
| 20260507181448 | 65 | 350 | 3.5 | 5.2 | 0.00 | 0.03 | 0.03 | 30 | 1005.2 |
| 20260507180944 | 66 | 85 | 2.6 | 4.3 | 0.00 | 0.03 | 0.03 | 31 | 1005.2 |
| 20260507180441 | 66 | 258 | 2.6 | 2.6 | 0.00 | 0.03 | 0.03 | 32 | 1005.1 |
| 20260507175937 | 66 | 252 | 2.6 | 4.3 | 0.00 | 0.03 | 0.03 | 35 | 1005.2 |
| 20260507175434 | 66 | 229 | 1.7 | 1.7 | 0.00 | 0.03 | 0.03 | 35 | 1005.2 |
| 20260507174932 | 64 | 268 | 0.9 | 0.9 | 0.00 | 0.03 | 0.03 | 37 | 1005.1 |
| 20260507174428 | 64 | 279 | 2.6 | 4.3 | 0.00 | 0.03 | 0.03 | 37 | 1005.2 |
| 20260507173926 | 64 | 336 | 1.7 | 1.7 | 0.00 | 0.03 | 0.03 | 37 | 1005.2 |
| 20260507173423 | 64 | 203 | 2.6 | 2.6 | 0.00 | 0.03 | 0.03 | 38 | 1005.3 |
| 20260507172919 | 64 | 176 | 4.3 | 4.3 | 0.00 | 0.03 | 0.03 | 39 | 1005.1 |
| 20260507172416 | 64 | 256 | 0.9 | 0.9 | 0.00 | 0.03 | 0.03 | 39 | 1005.3 |
| 20260507171912 | 63 | 302 | 5.2 | 7.8 | 0.00 | 0.03 | 0.03 | 43 | 1005.4 |
| 20260507171409 | 63 | 29 | 2.6 | 2.6 | 0.00 | 0.03 | 0.03 | 46 | 1005.5 |
| 20260507170906 | 64 | 174 | 1.7 | 1.7 | 0.00 | 0.03 | 0.03 | 50 | 1005.3 |
| 20260507170402 | 63 | 320 | 1.7 | 2.6 | 0.00 | 0.03 | 0.03 | 47 | 1005.2 |
| 20260507165859 | 62 | 198 | 2.6 | 2.6 | 0.00 | 0.03 | 0.03 | 49 | 1005.4 |
| 20260507165354 | 62 | 268 | 1.7 | 2.6 | 0.00 | 0.03 | 0.03 | 54 | 1005.5 |
| 20260507164851 | 62 | 284 | 4.3 | 6.1 | 0.00 | 0.03 | 0.03 | 52 | 1005.5 |
| 20260507164348 | 63 | 333 | 0.9 | 2.6 | 0.00 | 0.03 | 0.03 | 54 | 1005.7 |
| 20260507163845 | 60 | 276 | 0.9 | 1.7 | 0.00 | 0.03 | 0.03 | 56 | 1005.8 |
| 20260507163342 | 60 | 237 | 0.9 | 0.9 | 0.00 | 0.03 | 0.03 | 52 | 1005.7 |
| 20260507162839 | 61 | 184 | 2.6 | 4.3 | 0.00 | 0.03 | 0.03 | 54 | 1005.9 |
| 20260507162334 | 60 | 291 | 1.7 | 1.7 | 0.00 | 0.03 | 0.03 | 53 | 1005.8 |
| 20260507161832 | 62 | 290 | 1.7 | 2.6 | 0.00 | 0.03 | 0.03 | 50 | 1005.9 |
| 20260507161328 | 63 | 263 | 2.6 | 2.6 | 0.00 | 0.03 | 0.03 | 51 | 1005.9 |
| 20260507160825 | 62 | 244 | 0.9 | 1.7 | 0.00 | 0.03 | 0.03 | 53 | 1006.0 |
| 20260507160321 | 63 | 275 | 2.6 | 4.3 | 0.00 | 0.03 | 0.03 | 49 | 1006.0 |
| 20260507155817 | 63 | 308 | 1.7 | 5.2 | 0.00 | 0.03 | 0.03 | 51 | 1006.2 |
| 20260507155313 | 61 | 240 | 0.9 | 0.9 | 0.00 | 0.03 | 0.03 | 52 | 1006.2 |
| 20260507154809 | 62 | 327 | 2.6 | 2.6 | 0.00 | 0.03 | 0.03 | 49 | 1006.0 |
| 20260507154307 | 63 | 226 | 2.6 | 4.3 | 0.00 | 0.03 | 0.03 | 49 | 1006.2 |
| 20260507153804 | 63 | 243 | 0.9 | 0.9 | 0.00 | 0.03 | 0.03 | 50 | 1006.2 |
| 20260507153300 | 62 | 189 | 2.6 | 2.6 | 0.00 | 0.03 | 0.03 | 45 | 1006.1 |
| 20260507152757 | 61 | 275 | 1.7 | 1.7 | 0.00 | 0.03 | 0.03 | 48 | 1006.1 |
| 20260507152253 | 61 | 296 | 1.7 | 1.7 | 0.00 | 0.03 | 0.03 | 50 | 1006.6 |
| 20260507151749 | 60 | 324 | 2.6 | 4.3 | 0.00 | 0.03 | 0.03 | 50 | 1006.4 |
| 20260507151245 | 61 | 235 | 0.9 | 1.7 | 0.00 | 0.03 | 0.03 | 52 | 1006.5 |
| 20260507150742 | 59 | 210 | 0.9 | 0.9 | 0.00 | 0.03 | 0.03 | 51 | 1006.6 |
| 20260507150239 | 60 | 209 | 0.9 | 1.7 | 0.00 | 0.03 | 0.03 | 51 | 1006.7 |
| 20260507145735 | 60 | 205 | 1.7 | 1.7 | 0.00 | 0.03 | 0.03 | 51 | 1006.7 |
| 20260507145232 | 60 | 210 | 0.9 | 1.7 | 0.00 | 0.03 | 0.03 | 54 | 1007.0 |
| 20260507144729 | 60 | 244 | 1.7 | 1.7 | 0.00 | 0.03 | 0.03 | 53 | 1006.7 |
| 20260507144227 | 61 | 204 | 0.9 | 0.9 | 0.00 | 0.03 | 0.03 | 55 | 1006.7 |
| 20260507143723 | 60 | 246 | 0.0 | 0.9 | 0.00 | 0.03 | 0.03 | 55 | 1006.8 |
| 20260507143220 | 60 | 236 | 2.6 | 2.6 | 0.00 | 0.03 | 0.03 | 57 | 1006.8 |
| 20260507142716 | 60 | 237 | 0.9 | 0.9 | 0.00 | 0.03 | 0.03 | 55 | 1006.8 |
| 20260507142213 | 60 | 217 | 0.9 | 1.7 | 0.00 | 0.03 | 0.03 | 55 | 1006.8 |
| 20260507141709 | 59 | 246 | 0.9 | 0.9 | 0.00 | 0.03 | 0.03 | 56 | 1006.8 |
| 20260507141206 | 59 | 260 | 1.7 | 1.7 | 0.00 | 0.03 | 0.03 | 54 | 1006.7 |
| 20260507140702 | 59 | 269 | 0.9 | 0.9 | 0.00 | 0.03 | 0.03 | 56 | 1006.9 |
| 20260507140200 | 59 | 249 | 1.7 | 1.7 | 0.00 | 0.03 | 0.03 | 57 | 1006.7 |
| 20260507135657 | 59 | 297 | 4.3 | 5.2 | 0.00 | 0.03 | 0.03 | 55 | 1006.8 |
| 20260507135154 | 59 | 248 | 0.9 | 0.9 | 0.00 | 0.03 | 0.03 | 60 | 1006.8 |
| 20260507134650 | 58 | 206 | 0.9 | 0.9 | 0.00 | 0.03 | 0.03 | 58 | 1006.8 |
| 20260507134147 | 58 | 304 | 1.7 | 1.7 | 0.00 | 0.03 | 0.03 | 59 | 1006.9 |
| 20260507133643 | 57 | 294 | 2.6 | 4.3 | 0.00 | 0.03 | 0.03 | 59 | 1006.9 |
| 20260507133140 | 58 | 245 | 0.9 | 1.7 | 0.00 | 0.03 | 0.03 | 59 | 1006.8 |
| 20260507132637 | 57 | 241 | 0.9 | 1.7 | 0.00 | 0.03 | 0.03 | 63 | 1007.1 |
| 20260507132133 | 57 | 227 | 0.9 | 0.9 | 0.00 | 0.03 | 0.03 | 62 | 1007.1 |
| 20260507131630 | 57 | 237 | 0.9 | 0.9 | 0.00 | 0.03 | 0.03 | 62 | 1007.2 |
| 20260507131128 | 55 | 289 | 0.9 | 1.7 | 0.00 | 0.03 | 0.03 | 61 | 1007.3 |
| 20260507130624 | 56 | 244 | 1.7 | 1.7 | 0.00 | 0.03 | 0.03 | 63 | 1007.5 |
| 20260507130122 | 56 | 317 | 4.3 | 5.2 | 0.00 | 0.03 | 0.03 | 63 | 1007.4 |
| 20260507125621 | 55 | 255 | 1.7 | 1.7 | 0.00 | 0.03 | 0.03 | 65 | 1007.4 |
| 20260507125118 | 54 | 271 | 0.0 | 0.9 | 0.00 | 0.03 | 0.03 | 67 | 1007.2 |
| 20260507124614 | 54 | 280 | 2.6 | 2.6 | 0.00 | 0.03 | 0.03 | 67 | 1007.3 |
| 20260507124112 | 53 | 238 | 0.9 | 1.7 | 0.00 | 0.03 | 0.03 | 70 | 1007.2 |
| 20260507123610 | 53 | 249 | 1.7 | 1.7 | 0.00 | 0.03 | 0.03 | 71 | 1007.2 |
| 20260507123107 | 53 | 287 | 3.5 | 5.2 | 0.00 | 0.03 | 0.03 | 72 | 1007.4 |
| 20260507122602 | 51 | 206 | 1.7 | 1.7 | 0.00 | 0.03 | 0.03 | 75 | 1007.3 |
| 20260507122058 | 51 | 240 | 0.0 | 0.9 | 0.00 | 0.03 | 0.03 | 77 | 1007.3 |
| 20260507121554 | 51 | 268 | 0.9 | 0.9 | 0.00 | 0.03 | 0.03 | 78 | 1007.2 |
| 20260507121050 | 51 | 252 | 0.9 | 0.9 | 0.00 | 0.03 | 0.03 | 78 | 1007.4 |
| 20260507120546 | 51 | 253 | 2.6 | 2.6 | 0.00 | 0.03 | 0.03 | 78 | 1007.3 |
| 20260507120043 | 50 | 274 | 0.9 | 1.7 | 0.00 | 0.03 | 0.03 | 79 | 1007.4 |
| 20260507115539 | 50 | 233 | 0.9 | 0.9 | 0.00 | 0.03 | 0.03 | 80 | 1007.3 |
| 20260507115035 | 50 | 265 | 1.7 | 1.7 | 0.00 | 0.03 | 0.03 | 80 | 1007.1 |
| 20260507114531 | 50 | 244 | 0.0 | 0.9 | 0.00 | 0.03 | 0.03 | 81 | 1007.3 |
| 20260507114029 | 49 | 240 | 0.9 | 0.9 | 0.00 | 0.03 | 0.03 | 83 | 1007.2 |
| 20260507113526 | 49 | 243 | 0.9 | 0.9 | 0.00 | 0.03 | 0.03 | 84 | 1007.2 |
| 20260507113023 | 49 | 250 | 0.9 | 0.9 | 0.00 | 0.03 | 0.03 | 85 | 1007.0 |
| 20260507112521 | 49 | 242 | 0.9 | 0.9 | 0.00 | 0.03 | 0.03 | 85 | 1007.0 |
| 20260507112017 | 49 | 237 | 0.0 | 0.9 | 0.00 | 0.03 | 0.03 | 85 | 1006.9 |
| 20260507111514 | 49 | 311 | 1.7 | 1.7 | 0.00 | 0.03 | 0.03 | 87 | 1006.9 |
| 20260507111010 | 49 | 291 | 0.9 | 1.7 | 0.00 | 0.03 | 0.03 | 88 | 1007.1 |
| 20260507110508 | 48 | 260 | 0.9 | 0.9 | 0.00 | 0.03 | 0.03 | 87 | 1007.3 |
| 20260507110004 | 48 | 255 | 0.9 | 0.9 | 0.00 | 0.03 | 0.03 | 88 | 1007.3 |
| 20260507105500 | 49 | 242 | 0.0 | 0.0 | 0.00 | 0.03 | 0.03 | 89 | 1007.5 |
| 20260507104957 | 48 | 241 | 0.0 | 0.9 | 0.00 | 0.03 | 0.03 | 88 | 1007.3 |
| 20260507104454 | 49 | 235 | 0.0 | 0.0 | 0.00 | 0.03 | 0.03 | 88 | 1007.1 |
| 20260507103950 | 48 | 229 | 0.9 | 1.7 | 0.00 | 0.03 | 0.03 | 88 | 1006.8 |
| 20260507103447 | 48 | 243 | 0.0 | 0.0 | 0.00 | 0.03 | 0.03 | 89 | 1006.6 |
| 20260507102943 | 48 | 237 | 0.0 | 0.0 | 0.07 | 0.03 | 0.03 | 89 | 1006.7 |
| 20260507102440 | 48 | 266 | 2.6 | 2.6 | 0.07 | 0.03 | 0.03 | 89 | 1006.8 |
| 20260507101936 | 48 | 251 | 0.9 | 0.9 | 0.00 | 0.02 | 0.02 | 89 | 1007.1 |
| 20260507101431 | 48 | 254 | 0.9 | 0.9 | 0.00 | 0.02 | 0.02 | 90 | 1006.9 |
| 20260507100928 | 48 | 246 | 1.7 | 1.7 | 0.00 | 0.02 | 0.02 | 90 | 1006.6 |
| 20260507100426 | 48 | 227 | 0.0 | 0.9 | 0.00 | 0.02 | 0.02 | 91 | 1006.3 |
| 20260507095924 | 48 | 249 | 0.9 | 1.7 | 0.00 | 0.02 | 0.02 | 91 | 1006.7 |
| 20260507095421 | 48 | 264 | 0.9 | 0.9 | 0.00 | 0.02 | 0.02 | 90 | 1006.6 |
| 20260507094918 | 48 | 241 | 0.0 | 0.9 | 0.00 | 0.02 | 0.02 | 90 | 1006.7 |
| 20260507094414 | 49 | 310 | 0.9 | 1.7 | 0.05 | 0.02 | 0.02 | 89 | 1006.9 |
| 20260507093911 | 49 | 278 | 0.9 | 0.9 | 0.05 | 0.02 | 0.02 | 89 | 1006.7 |
| 20260507093409 | 49 | 244 | 0.9 | 0.9 | 0.00 | 0.01 | 0.01 | 89 | 1006.6 |
| 20260507092907 | 49 | 263 | 0.9 | 0.9 | 0.00 | 0.01 | 0.01 | 90 | 1006.4 |
| 20260507092403 | 49 | 244 | 0.0 | 0.9 | 0.00 | 0.01 | 0.01 | 91 | 1006.8 |
| 20260507091900 | 49 | 251 | 0.9 | 0.9 | 0.00 | 0.01 | 0.01 | 91 | 1006.9 |
| 20260507091356 | 50 | 255 | 0.0 | 0.9 | 0.00 | 0.01 | 0.01 | 91 | 1006.9 |
| 20260507090852 | 50 | 247 | 0.9 | 0.9 | 0.00 | 0.01 | 0.01 | 91 | 1006.8 |
| 20260507090348 | 50 | 263 | 0.9 | 0.9 | 0.00 | 0.01 | 0.01 | 91 | 1006.6 |
| 20260507085845 | 49 | 266 | 0.9 | 0.9 | 0.00 | 0.01 | 0.01 | 91 | 1006.7 |
| 20260507085342 | 50 | 249 | 1.7 | 1.7 | 0.00 | 0.01 | 0.01 | 91 | 1006.8 |
| 20260507084840 | 49 | 244 | 0.9 | 0.9 | 0.00 | 0.01 | 0.01 | 92 | 1006.3 |
| 20260507084336 | 50 | 252 | 0.9 | 0.9 | 0.00 | 0.01 | 0.01 | 92 | 1006.3 |
| 20260507083833 | 50 | 250 | 0.9 | 0.9 | 0.00 | 0.01 | 0.01 | 92 | 1006.4 |
| 20260507083330 | 50 | 242 | 0.0 | 0.0 | 0.00 | 0.01 | 0.01 | 92 | 1006.2 |
| 20260507082826 | 50 | 243 | 0.0 | 0.0 | 0.00 | 0.01 | 0.01 | 92 | 1006.0 |
| 20260507082321 | 50 | 262 | 1.7 | 1.7 | 0.00 | 0.01 | 0.01 | 92 | 1006.1 |
| 20260507081819 | 50 | 249 | 1.7 | 1.7 | 0.00 | 0.01 | 0.01 | 92 | 1006.2 |
| 20260507081315 | 50 | 268 | 0.0 | 0.9 | 0.00 | 0.01 | 0.01 | 92 | 1006.4 |
| 20260507080811 | 51 | 245 | 0.9 | 1.7 | 0.07 | 0.01 | 0.01 | 91 | 1006.6 |
| 20260507080308 | 51 | 275 | 2.6 | 2.6 | 0.07 | 0.01 | 0.01 | 90 | 1006.5 |
| 20260507075803 | 51 | 245 | 0.0 | 0.9 | 0.07 | 0.01 | 0.01 | 88 | 1006.4 |
| 20260507075259 | 51 | 313 | 2.6 | 2.6 | 0.00 | 0.00 | 0.00 | 87 | 1006.2 |
| 20260507074756 | 52 | 259 | 0.9 | 1.7 | 0.00 | 0.00 | 0.00 | 87 | 1006.3 |
| 20260507074254 | 51 | 237 | 0.9 | 0.9 | 0.00 | 0.00 | 0.00 | 87 | 1006.1 |
| 20260507073751 | 52 | 252 | 0.9 | 0.9 | 0.00 | 0.00 | 0.00 | 87 | 1005.8 |
| 20260507073247 | 52 | 248 | 0.9 | 1.7 | 0.00 | 0.00 | 0.00 | 87 | 1005.8 |
| 20260507072745 | 52 | 249 | 1.7 | 1.7 | 0.00 | 0.00 | 0.00 | 87 | 1005.9 |
| 20260507072242 | 52 | 281 | 2.6 | 2.6 | 0.00 | 0.00 | 0.00 | 87 | 1006.0 |
| 20260507071740 | 52 | 247 | 0.9 | 0.9 | 0.00 | 0.00 | 0.00 | 87 | 1005.8 |
| 20260507071236 | 52 | 272 | 2.6 | 2.6 | 0.00 | 0.00 | 0.00 | 86 | 1005.7 |
| 20260507070733 | 52 | 269 | 1.7 | 1.7 | 0.00 | 0.00 | 0.00 | 86 | 1005.6 |
| 20260507070230 | 52 | 249 | 0.0 | 0.0 | 0.00 | 0.00 | 0.00 | 86 | 1005.5 |
| 20260507065726 | 52 | 281 | 1.7 | 2.6 | 0.00 | 0.00 | 0.00 | 86 | 1005.8 |
| 20260507065223 | 52 | 257 | 2.6 | 2.6 | 0.00 | 0.00 | 0.00 | 86 | 1005.7 |
| 20260507064721 | 52 | 260 | 0.9 | 0.9 | 0.00 | 0.00 | 0.00 | 87 | 1005.6 |
| 20260507064220 | 52 | 246 | 0.9 | 0.9 | 0.00 | 0.00 | 0.00 | 88 | 1005.7 |
| 20260507063716 | 52 | 249 | 0.9 | 0.9 | 0.00 | 0.00 | 0.00 | 87 | 1005.7 |
| 20260507063213 | 52 | 250 | 0.9 | 0.9 | 0.00 | 0.00 | 0.00 | 88 | 1005.4 |
| 20260507062710 | 53 | 246 | 0.9 | 1.7 | 0.00 | 0.00 | 0.00 | 89 | 1005.3 |
| 20260507062208 | 53 | 290 | 4.3 | 6.1 | 0.00 | 0.00 | 0.00 | 90 | 1005.6 |
| 20260507061705 | 53 | 254 | 0.9 | 0.9 | 0.00 | 0.00 | 0.00 | 91 | 1005.5 |
| 20260507061203 | 53 | 297 | 1.7 | 2.6 | 0.00 | 0.00 | 0.00 | 92 | 1005.6 |
| 20260507060701 | 53 | 309 | 0.9 | 0.9 | 0.00 | 0.00 | 0.00 | 92 | 1005.6 |
| 20260507060157 | 53 | 244 | 0.9 | 0.9 | 0.00 | 0.00 | 0.00 | 92 | 1005.5 |
| 20260507055653 | 54 | 261 | 0.9 | 1.7 | 0.00 | 0.00 | 0.00 | 93 | 1005.7 |
| 20260507055149 | 54 | 245 | 0.9 | 0.9 | 0.00 | 0.00 | 0.00 | 92 | 1005.6 |
| 20260507054645 | 54 | 270 | 3.5 | 4.3 | 0.00 | 0.00 | 0.00 | 92 | 1005.8 |
| 20260507054142 | 54 | 254 | 1.7 | 1.7 | 0.00 | 0.00 | 0.00 | 92 | 1005.8 |
| 20260507053640 | 54 | 255 | 2.6 | 2.6 | 0.00 | 0.00 | 0.00 | 92 | 1005.7 |
| 20260507053138 | 54 | 255 | 1.7 | 2.6 | 0.00 | 0.00 | 0.00 | 94 | 1005.7 |
| 20260507052636 | 54 | 244 | 0.9 | 0.9 | 0.00 | 0.00 | 0.00 | 95 | 1005.7 |
| 20260507052132 | 54 | 240 | 0.0 | 0.9 | 0.00 | 0.00 | 0.00 | 96 | 1005.6 |
| 20260507051630 | 55 | 259 | 3.5 | 4.3 | 0.00 | 0.00 | 0.00 | 96 | 1005.6 |
| 20260507051126 | 56 | 264 | 1.7 | 2.6 | 0.00 | 0.00 | 0.00 | 97 | 1005.6 |
| 20260507050623 | 57 | 275 | 0.0 | 0.0 | 0.00 | 0.00 | 0.00 | 98 | 1006.0 |
| 20260507050120 | 57 | 266 | 1.7 | 1.7 | 0.00 | 0.00 | 0.00 | 98 | 1005.8 |
| 20260507045617 | 57 | 252 | 0.9 | 0.9 | 0.00 | 0.00 | 0.00 | 98 | 1005.6 |
| 20260507045114 | 57 | 275 | 0.9 | 1.7 | 0.00 | 0.00 | 0.00 | 98 | 1005.4 |
| 20260507044610 | 57 | 283 | 1.7 | 1.7 | 0.00 | 0.00 | 0.00 | 99 | 1005.5 |
| 20260507044108 | 58 | 299 | 2.6 | 2.6 | 0.00 | 0.00 | 0.00 | 99 | 1005.5 |
| 20260507043603 | 58 | 243 | 0.0 | 0.9 | 0.00 | 0.00 | 0.00 | 99 | 1005.4 |
| 20260507043101 | 58 | 242 | 0.0 | 0.0 | 0.00 | 0.00 | 0.00 | 99 | 1005.8 |
| 20260507042556 | 58 | 345 | 2.6 | 4.3 | 0.00 | 0.00 | 0.00 | 99 | 1005.4 |
| 20260507042052 | 59 | 236 | 0.0 | 0.0 | 0.00 | 0.00 | 0.00 | 99 | 1005.5 |
| 20260507041549 | 59 | 248 | 0.0 | 0.0 | 0.00 | 0.00 | 0.00 | 99 | 1005.4 |
| 20260507041046 | 59 | 247 | 0.0 | 0.0 | 0.00 | 0.00 | 0.00 | 99 | 1005.8 |
| 20260507040542 | 59 | 241 | 0.0 | 0.0 | 0.00 | 0.00 | 0.00 | 99 | 1005.6 |
| 20260507040038 | 59 | 213 | 0.0 | 0.0 | 0.05 | 0.13 | 0.13 | 99 | 1005.4 |
| 20260507035535 | 59 | 222 | 0.0 | 0.0 | 0.05 | 0.13 | 0.13 | 99 | 1005.2 |
| 20260507035031 | 59 | 243 | 0.9 | 0.9 | 0.00 | 0.12 | 0.12 | 99 | 1005.3 |
| 20260507034528 | 59 | 218 | 1.7 | 1.7 | 0.00 | 0.12 | 0.12 | 99 | 1005.3 |
| 20260507034026 | 59 | 224 | 0.9 | 0.9 | 0.00 | 0.12 | 0.12 | 99 | 1005.5 |
| 20260507033524 | 59 | 196 | 2.6 | 2.6 | 0.00 | 0.12 | 0.12 | 99 | 1005.4 |
| 20260507033021 | 59 | 209 | 0.9 | 0.9 | 0.00 | 0.12 | 0.12 | 99 | 1005.1 |
| 20260507032518 | 59 | 202 | 0.9 | 1.7 | 0.00 | 0.12 | 0.12 | 99 | 1005.0 |
| 20260507032014 | 59 | 221 | 0.9 | 0.9 | 0.00 | 0.12 | 0.12 | 99 | 1005.0 |
| 20260507031510 | 59 | 235 | 0.9 | 0.9 | 0.00 | 0.12 | 0.12 | 99 | 1004.7 |
| 20260507031008 | 59 | 192 | 1.7 | 1.7 | 0.00 | 0.12 | 0.12 | 99 | 1004.8 |
| 20260507030504 | 59 | 212 | 0.9 | 1.7 | 0.00 | 0.12 | 0.12 | 99 | 1004.7 |
| 20260507030002 | 59 | 203 | 0.9 | 0.9 | 0.00 | 0.12 | 0.12 | 99 | 1004.8 |
| 20260507025458 | 59 | 237 | 0.9 | 0.9 | 0.00 | 0.12 | 0.12 | 99 | 1004.8 |
| 20260507024956 | 59 | 213 | 1.7 | 1.7 | 0.00 | 0.12 | 0.12 | 99 | 1004.8 |
| 20260507024453 | 58 | 211 | 1.7 | 1.7 | 0.00 | 0.12 | 0.12 | 99 | 1004.9 |
| 20260507023949 | 58 | 234 | 0.9 | 0.9 | 0.00 | 0.12 | 0.12 | 99 | 1004.9 |
| 20260507023446 | 58 | 195 | 2.6 | 4.3 | 0.00 | 0.12 | 0.12 | 99 | 1004.9 |
| 20260507022943 | 58 | 222 | 2.6 | 2.6 | 0.00 | 0.12 | 0.12 | 99 | 1005.0 |
| 20260507022441 | 58 | 235 | 1.7 | 1.7 | 0.00 | 0.12 | 0.12 | 99 | 1005.0 |
| 20260507021936 | 58 | 185 | 1.7 | 1.7 | 0.00 | 0.12 | 0.12 | 99 | 1004.7 |
| 20260507021431 | 58 | 227 | 0.9 | 1.7 | 0.00 | 0.12 | 0.12 | 99 | 1004.8 |
| 20260507020930 | 58 | 192 | 3.5 | 4.3 | 0.00 | 0.12 | 0.12 | 99 | 1005.0 |
| 20260507020426 | 58 | 182 | 2.6 | 2.6 | 0.00 | 0.12 | 0.12 | 99 | 1005.0 |
| 20260507015923 | 58 | 229 | 1.7 | 1.7 | 0.00 | 0.12 | 0.12 | 99 | 1005.0 |
| 20260507015421 | 58 | 205 | 1.7 | 1.7 | 0.00 | 0.12 | 0.12 | 99 | 1005.1 |
| 20260507014918 | 58 | 215 | 0.9 | 1.7 | 0.00 | 0.12 | 0.12 | 99 | 1005.0 |
| 20260507014414 | 58 | 185 | 0.9 | 1.7 | 0.00 | 0.12 | 0.12 | 99 | 1005.2 |
| 20260507013910 | 58 | 205 | 1.7 | 1.7 | 0.00 | 0.12 | 0.12 | 99 | 1005.1 |
| 20260507013408 | 58 | 189 | 0.9 | 1.7 | 0.00 | 0.12 | 0.12 | 99 | 1005.2 |
| 20260507012905 | 58 | 211 | 2.6 | 2.6 | 0.00 | 0.12 | 0.12 | 99 | 1005.2 |
| 20260507012401 | 58 | 188 | 0.9 | 1.7 | 0.00 | 0.12 | 0.12 | 99 | 1005.5 |
| 20260507011859 | 58 | 189 | 2.6 | 2.6 | 0.00 | 0.12 | 0.12 | 99 | 1005.3 |
| 20260507011355 | 58 | 202 | 0.9 | 1.7 | 0.00 | 0.12 | 0.12 | 99 | 1005.1 |
| 20260507010855 | 57 | 202 | 0.0 | 0.0 | 0.00 | 0.12 | 0.12 | 99 | 1005.4 |
| 20260507010351 | 57 | 171 | 1.7 | 1.7 | 0.00 | 0.12 | 0.12 | 99 | 1005.3 |
| 20260507005848 | 57 | 212 | 0.9 | 1.7 | 0.00 | 0.12 | 0.12 | 99 | 1005.4 |